Time;durP1;ratioP1;P1;durP2;ratioP2;P2;SDS_P1;SDS_P2;PMS_P1;PMS_P2;Temp;Humidity;BMP_temperature;BMP_pressure;BME280_temperature;BME280_humidity;BME280_pressure;Samples;Min_cycle;Max_cycle;Signal;HPM_P1;HPM_P2
2022/09/10 00:01:46;;;;;;;8.28;3.17;;;;;;;9.16;100.00;99812.64;1679057;84;21446;-71
2022/09/10 00:04:15;;;;;;;6.70;4.15;;;;;;;9.14;100.00;99806.09;1685423;84;21188;-71
2022/09/10 00:06:47;;;;;;;6.53;3.25;;;;;;;9.14;100.00;99808.02;1681870;84;21059;-71
2022/09/10 00:09:16;;;;;;;7.30;3.98;;;;;;;9.14;100.00;99806.09;1674608;84;21074;-70
2022/09/10 00:11:48;;;;;;;9.93;3.60;;;;;;;9.12;100.00;99812.42;1673754;84;21059;-71
2022/09/10 00:14:20;;;;;;;9.33;3.77;;;;;;;9.11;100.00;99806.69;1675062;84;21038;-70
2022/09/10 00:16:54;;;;;;;6.42;3.25;;;;;;;9.11;100.00;99809.43;1677095;84;21165;-71
2022/09/10 00:19:22;;;;;;;7.57;3.73;;;;;;;9.12;100.00;99811.05;1673609;84;21463;-70
2022/09/10 00:21:53;;;;;;;10.05;3.30;;;;;;;9.12;100.00;99808.31;1666768;84;21442;-69
2022/09/10 00:24:21;;;;;;;9.05;3.85;;;;;;;9.11;100.00;99803.95;1677971;84;21530;-72
2022/09/10 00:26:51;;;;;;;6.85;3.17;;;;;;;9.13;100.00;99803.09;1673216;84;21133;-71
2022/09/10 00:29:23;;;;;;;7.22;3.47;;;;;;;9.13;100.00;99801.73;1668038;84;21011;-72
2022/09/10 00:31:53;;;;;;;9.05;3.45;;;;;;;9.14;100.00;99806.65;1644877;85;21055;-72
2022/09/10 00:34:24;;;;;;;7.97;3.50;;;;;;;9.13;100.00;99808.58;1684869;84;20940;-71
2022/09/10 00:36:58;;;;;;;5.70;2.92;;;;;;;9.13;100.00;99814.61;1671892;84;21063;-71
2022/09/10 00:39:26;;;;;;;4.87;3.52;;;;;;;9.13;100.00;99807.20;1673016;84;26591;-70
2022/09/10 00:41:57;;;;;;;6.95;3.30;;;;;;;9.13;100.00;99800.91;1671233;84;21265;-70
2022/09/10 00:44:43;;;;;;;6.28;3.67;;;;;;;9.14;100.00;99806.09;1670044;84;21138;-70
2022/09/10 00:47:21;;;;;;;9.45;3.80;;;;;;;9.14;100.00;99810.20;1660255;84;20966;-70
2022/09/10 00:50:06;;;;;;;6.75;3.30;;;;;;;9.15;100.00;99815.12;1679230;84;20962;-72
2022/09/10 00:52:34;;;;;;;9.43;4.20;;;;;;;9.16;100.00;99809.34;1680052;84;21094;-72
2022/09/10 00:55:07;;;;;;;11.65;3.58;;;;;;;9.17;100.00;99804.13;1680818;84;21154;-72
2022/09/10 00:57:36;;;;;;;9.17;3.50;;;;;;;9.17;100.00;99802.75;1665600;84;21086;-73
2022/09/10 01:00:08;;;;;;;6.30;3.50;;;;;;;9.18;100.00;99802.20;1667788;84;21068;-72
2022/09/10 01:02:40;;;;;;;8.58;3.30;;;;;;;9.19;100.00;99798.34;1681243;84;20956;-72
2022/09/10 01:05:10;;;;;;;6.75;3.40;;;;;;;9.17;100.00;99793.17;1686630;84;20883;-72
2022/09/10 01:07:47;;;;;;;5.15;2.95;;;;;;;9.19;100.00;99790.13;1698201;84;21181;-72
2022/09/10 01:10:17;;;;;;;6.80;2.92;;;;;;;9.21;100.00;99791.45;1687489;84;21470;-72
2022/09/10 01:13:34;;;;;;;5.30;2.87;;;;;;;9.22;100.00;99793.08;1667929;84;21024;-72
2022/09/10 01:16:41;;;;;;;5.75;3.02;;;;;;;9.23;100.00;99791.97;1668942;84;21034;-72
2022/09/10 01:19:24;;;;;;;5.17;2.70;;;;;;;9.24;100.00;99794.93;1676746;84;20930;-72
2022/09/10 01:22:02;;;;;;;5.55;3.27;;;;;;;9.22;100.00;99786.23;1680929;84;21307;-72
2022/09/10 01:24:53;;;;;;;5.75;2.70;;;;;;;9.24;100.00;99784.56;1658403;84;20975;-72
2022/09/10 01:27:33;;;;;;;8.30;4.22;;;;;;;9.23;100.00;99781.56;1649274;86;21440;-72
2022/09/10 01:30:08;;;;;;;5.58;2.90;;;;;;;9.22;100.00;99775.28;1674083;84;21069;-71
2022/09/10 01:33:03;;;;;;;7.45;3.20;;;;;;;9.22;100.00;99772.53;1673994;84;20963;-71
2022/09/10 01:35:48;;;;;;;5.67;3.10;;;;;;;9.21;100.00;99766.80;1608178;87;21793;-71
2022/09/10 01:38:25;;;;;;;5.58;3.27;;;;;;;9.21;100.00;99766.80;1615395;88;21090;-69
2022/09/10 01:41:05;;;;;;;6.97;3.35;;;;;;;9.19;100.00;99769.03;1640373;84;21474;-70
2022/09/10 01:43:36;;;;;;;5.12;3.05;;;;;;;9.19;100.00;99758.08;1646865;84;21110;-70
2022/09/10 01:46:33;;;;;;;3.92;2.75;;;;;;;9.19;100.00;99758.08;1686335;84;21074;-70
2022/09/10 01:49:33;;;;;;;5.58;3.30;;;;;;;9.20;100.00;99750.67;1674031;84;21523;-71
2022/09/10 01:52:28;;;;;;;6.25;3.20;;;;;;;9.19;100.00;99753.16;1669741;84;20883;-70
2022/09/10 01:55:32;;;;;;;4.33;2.83;;;;;;;9.17;100.00;99746.61;1676351;84;21518;-70
2022/09/10 01:58:15;;;;;;;5.37;2.85;;;;;;;9.15;100.00;99740.61;1675135;84;20981;-70
2022/09/10 02:01:07;;;;;;;5.45;2.83;;;;;;;9.14;100.00;99738.17;1677644;84;21094;-70
2022/09/10 02:03:36;;;;;;;5.40;3.10;;;;;;;9.12;100.00;99737.66;1644260;84;21012;-69
2022/09/10 02:06:08;;;;;;;8.00;3.65;;;;;;;9.11;100.00;99736.85;1678540;84;21520;-70
2022/09/10 02:08:38;;;;;;;8.80;2.80;;;;;;;9.10;100.00;99734.41;1672670;84;21020;-70
2022/09/10 02:11:13;;;;;;;4.67;2.87;;;;;;;9.09;100.00;99725.39;1686618;84;20970;-71
2022/09/10 02:13:47;;;;;;;4.37;2.58;;;;;;;9.10;100.00;99737.16;1680829;84;21012;-71
2022/09/10 02:16:36;;;;;;;4.05;2.65;;;;;;;9.10;100.00;99735.78;1671540;84;21145;-71
2022/09/10 02:19:13;;;;;;;6.25;3.30;;;;;;;9.09;100.00;99722.65;1682041;84;20892;-70
2022/09/10 02:21:42;;;;;;;4.62;3.25;;;;;;;9.09;100.00;99728.68;1672650;84;21151;-70
2022/09/10 02:24:14;;;;;;;4.58;2.40;;;;;;;9.08;100.00;99723.77;1627642;85;21062;-71
2022/09/10 02:26:43;;;;;;;5.10;3.37;;;;;;;9.10;100.00;99732.48;1650547;85;21063;-71
2022/09/10 02:29:14;;;;;;;3.47;2.65;;;;;;;9.10;100.00;99717.98;1646170;86;21429;-71
2022/09/10 02:31:50;;;;;;;7.08;2.52;;;;;;;9.09;100.00;99724.02;1677741;84;20907;-71
2022/09/10 02:34:19;;;;;;;4.95;2.72;;;;;;;9.10;100.00;99727.02;1682621;84;21044;-72
2022/09/10 02:36:51;;;;;;;5.15;2.67;;;;;;;9.10;100.00;99722.91;1652689;86;21067;-72
2022/09/10 02:39:20;;;;;;;4.47;2.70;;;;;;;9.10;100.00;99725.64;1668554;84;21004;-73
2022/09/10 02:41:48;;;;;;;3.92;2.20;;;;;;;9.11;100.00;99718.23;1669022;84;21145;-71
2022/09/10 02:44:16;;;;;;;5.25;2.80;;;;;;;9.12;100.00;99721.23;1680593;84;20994;-72
2022/09/10 02:46:45;;;;;;;2.33;1.90;;;;;;;9.10;100.00;99722.91;1640653;86;20923;-72
2022/09/10 02:49:13;;;;;;;2.72;1.92;;;;;;;9.11;100.00;99722.34;1648468;86;21130;-72
2022/09/10 02:51:47;;;;;;;5.17;2.10;;;;;;;9.10;100.00;99717.42;1647028;86;21125;-72
2022/09/10 02:54:19;;;;;;;2.92;1.90;;;;;;;9.10;100.00;99718.80;1666940;83;21578;-72
2022/09/10 02:56:48;;;;;;;;;;;;;;;9.10;100.00;99718.80;1666381;85;21023;-71
2022/09/10 02:59:18;;;;;;;9.70;2.25;;;;;;;9.10;100.00;99729.75;1646057;84;20160;-69
2022/09/10 03:01:47;;;;;;;2.83;2.17;;;;;;;9.10;100.00;99719.35;1644095;86;20979;-70
2022/09/10 03:04:23;;;;;;;3.50;2.00;;;;;;;9.09;100.00;99714.44;1638984;86;20984;-71
2022/09/10 03:06:53;;;;;;;4.15;2.12;;;;;;;9.09;100.00;99717.17;1639839;86;21287;-71
2022/09/10 03:09:22;;;;;;;2.72;2.12;;;;;;;9.08;100.00;99712.81;1637801;86;21050;-72
2022/09/10 03:11:52;;;;;;;3.00;2.15;;;;;;;9.08;100.00;99710.63;1647310;85;20975;-70
2022/09/10 03:14:24;;;;;;;4.20;1.98;;;;;;;9.07;100.00;99711.73;1625179;85;20888;-70
2022/09/10 03:16:55;;;;;;;3.80;2.00;;;;;;;9.07;100.00;99710.37;1637893;86;21501;-72
2022/09/10 03:19:30;;;;;;;2.45;2.17;;;;;;;9.07;100.00;99698.05;1639022;86;20946;-69
2022/09/10 03:22:00;;;;;;;6.80;1.80;;;;;;;9.08;100.00;99710.63;1644490;86;21598;-69
2022/09/10 03:24:31;;;;;;;1.95;1.80;;;;;;;9.09;100.00;99695.27;1659590;85;21028;-68
2022/09/10 03:27:01;;;;;;;2.22;1.90;;;;;;;9.08;100.00;99697.75;1639965;86;21026;-69
2022/09/10 03:29:32;;;;;;;2.60;1.72;;;;;;;9.09;100.00;99696.63;1641720;85;20966;-68
2022/09/10 03:32:01;;;;;;;2.83;1.85;;;;;;;9.10;100.00;99694.15;1643928;85;21283;-67
2022/09/10 03:34:35;;;;;;;4.50;2.02;;;;;;;9.11;100.00;99692.22;1648000;85;21169;-67
2022/09/10 03:37:04;;;;;;;3.52;2.12;;;;;;;9.12;100.00;99687.81;1656908;86;20904;-66
2022/09/10 03:39:35;;;;;;;2.67;1.90;;;;;;;9.12;100.00;99689.18;1647789;86;20991;-66
2022/09/10 03:42:06;;;;;;;2.35;1.70;;;;;;;9.13;100.00;99691.36;1650542;86;21014;-67
2022/09/10 03:44:33;;;;;;;3.90;1.90;;;;;;;9.11;100.00;99686.19;1654501;85;21277;-66
2022/09/10 03:47:10;;;;;;;4.47;1.90;;;;;;;9.10;100.00;99691.41;1646764;85;21006;-67
2022/09/10 03:49:38;;;;;;;1.98;1.60;;;;;;;9.09;100.00;99686.23;1660856;84;21078;-67
2022/09/10 03:52:05;;;;;;;4.08;1.87;;;;;;;9.08;100.00;99696.37;1651601;85;21015;-68
2022/09/10 03:54:37;;;;;;;3.40;1.65;;;;;;;9.08;100.00;99694.20;1650188;86;21014;-68
2022/09/10 03:57:07;;;;;;;2.37;2.17;;;;;;;9.09;100.00;99692.52;1660200;85;21888;-68
2022/09/10 03:59:44;;;;;;;2.12;1.72;;;;;;;9.10;100.00;99685.12;1643613;85;21121;-69
2022/09/10 04:02:11;;;;;;;2.20;1.72;;;;;;;9.11;100.00;99686.19;1638933;86;21016;-68
2022/09/10 04:04:45;;;;;;;1.70;1.50;;;;;;;9.12;100.00;99682.89;1636839;85;20971;-68
2022/09/10 04:07:12;;;;;;;1.65;1.22;;;;;;;9.12;100.00;99671.94;1663801;84;21194;-68
2022/09/10 04:09:41;;;;;;;2.22;1.62;;;;;;;9.11;100.00;99668.38;1680888;84;21266;-67
2022/09/10 04:12:12;;;;;;;4.10;1.70;;;;;;;9.11;100.00;99674.42;1694620;84;20933;-67
2022/09/10 04:14:45;;;;;;;3.30;1.27;;;;;;;9.12;100.00;99665.09;1681295;84;20962;-67
2022/09/10 04:17:13;;;;;;;2.75;1.60;;;;;;;9.11;100.00;99673.86;1662820;84;21105;-68
2022/09/10 04:19:49;;;;;;;1.87;1.70;;;;;;;9.10;100.00;99662.66;1641468;86;20926;-72
2022/09/10 04:22:16;;;;;;;1.98;1.50;;;;;;;9.10;100.00;99668.13;1664381;84;21631;-71
2022/09/10 04:24:48;;;;;;;2.05;1.57;;;;;;;9.10;100.00;99665.39;1681385;85;21123;-68
2022/09/10 04:27:17;;;;;;;;;;;;;;;9.10;100.00;99664.02;1665064;85;20918;-69
2022/09/10 04:29:46;;;;;;;2.27;1.80;;;;;;;9.11;100.00;99661.54;1671411;85;20147;-71
2022/09/10 04:32:20;;;;;;;4.17;1.90;;;;;;;9.11;100.00;99667.02;1652307;85;20974;-71
2022/09/10 04:34:48;;;;;;;2.75;1.95;;;;;;;9.12;100.00;99660.98;1666962;84;20966;-71
2022/09/10 04:37:17;;;;;;;2.95;2.15;;;;;;;9.12;100.00;99654.95;1691150;84;21560;-71
2022/09/10 04:39:50;;;;;;;2.60;1.98;;;;;;;9.13;100.00;99665.34;1660199;84;21148;-72
2022/09/10 04:42:22;;;;;;;1.72;1.62;;;;;;;9.14;100.00;99659.56;1677174;84;21488;-72
2022/09/10 04:44:52;;;;;;;2.55;2.30;;;;;;;9.16;100.00;99662.00;1655354;86;21007;-72
2022/09/10 04:47:22;;;;;;;2.10;1.90;;;;;;;9.17;100.00;99660.88;1666653;84;21823;-70
2022/09/10 04:49:50;;;;;;;1.65;1.55;;;;;;;9.16;100.00;99660.07;1678670;84;21167;-73
2022/09/10 04:52:21;;;;;;;3.83;1.60;;;;;;;9.16;100.00;99650.48;1677592;84;21139;-73
2022/09/10 04:54:53;;;;;;;2.42;2.22;;;;;;;9.18;100.00;99661.14;1673065;84;20961;-74
2022/09/10 04:57:24;;;;;;;2.90;2.25;;;;;;;9.17;100.00;99657.59;1682979;84;21676;-74
2022/09/10 04:59:56;;;;;;;2.95;2.10;;;;;;;9.18;100.00;99649.63;1681998;84;21154;-67
2022/09/10 05:02:23;;;;;;;2.25;1.90;;;;;;;9.17;100.00;99637.05;1681851;84;21032;-67
2022/09/10 05:04:52;;;;;;;5.87;1.87;;;;;;;9.17;100.00;99647.19;1689021;84;20960;-67
2022/09/10 05:07:24;;;;;;;2.33;2.08;;;;;;;9.16;100.00;99643.64;1653857;85;21002;-68
2022/09/10 05:09:56;;;;;;;2.00;1.80;;;;;;;9.16;100.00;99638.72;1671048;84;20962;-67
2022/09/10 05:12:28;;;;;;;2.05;1.85;;;;;;;9.16;100.00;99638.72;1693495;84;25150;-67
2022/09/10 05:14:58;;;;;;;2.15;1.90;;;;;;;9.16;100.00;99642.27;1690196;84;20985;-73
2022/09/10 05:17:28;;;;;;;2.50;2.30;;;;;;;9.15;100.00;99646.68;1670160;85;21038;-73
2022/09/10 05:19:58;;;;;;;3.22;2.65;;;;;;;9.15;100.00;99654.90;1672668;84;21502;-73
2022/09/10 05:22:34;;;;;;;2.52;2.30;;;;;;;9.14;100.00;99647.23;1661161;84;20910;-74
2022/09/10 05:25:07;;;;;;;3.08;2.62;;;;;;;9.15;100.00;99644.75;1644424;85;20902;-77
2022/09/10 05:27:37;;;;;;;2.90;2.55;;;;;;;9.16;100.00;99648.30;1637937;84;20950;-75
2022/09/10 05:30:08;;;;;;;;;;;;;;;9.15;100.00;99636.54;1687582;84;20980;-76
2022/09/10 05:32:38;;;;;;;2.83;2.58;;;;;;;9.16;100.00;99642.27;1659159;85;20428;-78
2022/09/10 05:35:09;;;;;;;2.83;2.52;;;;;;;9.17;100.00;99642.52;1667279;84;21163;-77
2022/09/10 05:37:46;;;;;;;3.77;3.30;;;;;;;9.19;100.00;99647.70;1632979;84;21146;-77
2022/09/10 05:40:17;;;;;;;3.85;3.02;;;;;;;9.20;100.00;99652.06;1595577;87;21010;-76
2022/09/10 05:42:52;;;;;;;3.55;3.25;;;;;;;9.20;100.00;99654.24;1685814;83;21029;-67
2022/09/10 05:45:22;;;;;;;3.47;3.15;;;;;;;9.22;100.00;99657.48;1682402;84;21405;-67
2022/09/10 05:47:50;;;;;;;6.67;4.30;;;;;;;9.24;100.00;99659.34;1695283;84;20889;-67
2022/09/10 05:50:21;;;;;;;5.47;4.65;;;;;;;9.27;100.00;99660.09;1689252;84;21824;-68
2022/09/10 05:52:52;;;;;;;5.80;5.20;;;;;;;9.28;100.00;99655.43;1690332;84;20920;-68
2022/09/10 05:55:22;;;;;;;8.10;6.30;;;;;;;9.28;100.00;99654.88;1674089;84;21481;-67
2022/09/10 05:57:52;;;;;;;7.85;6.05;;;;;;;9.31;100.00;99658.12;1680266;84;21040;-67
2022/09/10 06:00:20;;;;;;;6.83;5.62;;;;;;;9.31;100.00;99662.23;1681021;84;21124;-67
2022/09/10 06:02:56;;;;;;;8.65;6.53;;;;;;;9.32;100.00;99650.16;1668478;84;21189;-67
2022/09/10 06:05:36;;;;;;;6.65;5.95;;;;;;;9.33;100.00;99658.63;1677187;84;20996;-67
2022/09/10 06:08:08;;;;;;;7.28;6.53;;;;;;;9.35;100.00;99661.88;1672508;84;21000;-68
2022/09/10 06:10:44;;;;;;;7.25;6.15;;;;;;;9.36;100.00;99661.57;1649300;84;21458;-69
2022/09/10 06:13:12;;;;;;;;;;;;;;;9.37;100.00;99653.61;1665541;84;20968;-68
2022/09/10 06:15:43;;;;;;;8.80;6.90;;;;;;;9.40;100.00;99652.19;1688315;84;21185;-67
2022/09/10 06:18:12;;;;;;;9.98;7.05;;;;;;;9.42;100.00;99654.06;1678996;84;20907;-67
2022/09/10 06:20:42;;;;;;;9.65;7.30;;;;;;;9.45;100.00;99645.23;1673756;84;21002;-67
2022/09/10 06:23:11;;;;;;;8.93;7.08;;;;;;;9.46;100.00;99643.56;1674115;84;21063;-67
2022/09/10 06:25:47;;;;;;;8.80;7.53;;;;;;;9.46;100.00;99634.52;1690124;84;20937;-68
2022/09/10 06:28:17;;;;;;;9.78;7.78;;;;;;;9.46;100.00;99621.63;1651979;84;20953;-67
2022/09/10 06:30:44;;;;;;;9.38;7.75;;;;;;;9.47;100.00;99626.00;1696251;84;20897;-68
2022/09/10 06:33:15;;;;;;;9.50;8.50;;;;;;;9.48;100.00;99632.29;1670010;84;21553;-68
2022/09/10 06:35:56;;;;;;;9.05;7.67;;;;;;;9.51;100.00;99626.20;1643886;84;21425;-67
2022/09/10 06:38:31;;;;;;;11.95;8.48;;;;;;;9.50;100.00;99629.50;1674246;84;21076;-68
2022/09/10 06:41:05;;;;;;;10.32;9.20;;;;;;;9.51;100.00;99627.56;1662141;84;21265;-67
2022/09/10 06:43:35;;;;;;;10.00;8.93;;;;;;;9.51;100.00;99626.20;1682036;84;37624;-67
2022/09/10 06:46:18;;;;;;;11.95;9.48;;;;;;;9.50;100.00;99626.75;1650545;85;21006;-67
2022/09/10 06:48:47;;;;;;;10.50;9.25;;;;;;;9.53;100.00;99634.92;1682253;84;20949;-68
2022/09/10 06:51:17;;;;;;;12.63;10.20;;;;;;;9.53;100.00;99631.62;1676800;84;21096;-68
2022/09/10 06:53:47;;;;;;;11.38;10.25;;;;;;;9.55;100.00;99629.95;1646112;86;22874;-68
2022/09/10 06:56:17;;;;;;;;;;;;;;;9.57;100.00;99635.94;1667791;84;21006;-67
2022/09/10 06:58:51;;;;;;;12.30;10.78;;;;;;;9.56;100.00;99635.13;1677298;84;20441;-67
2022/09/10 07:01:22;;;;;;;12.63;10.58;;;;;;;9.57;100.00;99641.41;1648768;84;20939;-67
2022/09/10 07:04:01;;;;;;;13.05;11.40;;;;;;;9.55;100.00;99630.76;1650082;84;21006;-67
2022/09/10 07:06:34;;;;;;;13.75;12.25;;;;;;;9.58;100.00;99634.81;1660487;84;21490;-68
2022/09/10 07:09:08;;;;;;;12.43;10.90;;;;;;;9.59;100.00;99632.33;1646688;86;20896;-68
2022/09/10 07:11:39;;;;;;;12.73;10.78;;;;;;;9.57;100.00;99630.45;1673023;84;21017;-67
2022/09/10 07:14:17;;;;;;;14.53;11.65;;;;;;;9.57;100.00;99631.27;1666137;84;21643;-67
2022/09/10 07:16:52;;;;;;;13.38;11.75;;;;;;;9.58;100.00;99636.19;1672042;84;21013;-68
2022/09/10 07:19:29;;;;;;;12.93;11.05;;;;;;;9.59;100.00;99639.98;1678785;84;21086;-67
2022/09/10 07:22:00;;;;;;;15.15;11.15;;;;;;;9.63;100.00;99638.82;1675148;84;20961;-67
2022/09/10 07:24:37;;;;;;;13.38;10.60;;;;;;;9.63;100.00;99644.86;1670473;84;21471;-68
2022/09/10 07:27:14;;;;;;;12.98;11.28;;;;;;;9.61;100.00;99631.46;1679397;84;21008;-67
2022/09/10 07:29:48;;;;;;;11.88;10.15;;;;;;;9.63;100.00;99629.78;1684753;84;21052;-67
2022/09/10 07:32:21;;;;;;;13.22;10.72;;;;;;;9.63;100.00;99638.82;1681644;84;21180;-67
2022/09/10 07:34:51;;;;;;;14.55;10.90;;;;;;;9.64;100.00;99639.62;1669619;84;21005;-68
2022/09/10 07:37:24;;;;;;;11.48;10.28;;;;;;;9.65;100.00;99636.58;1668603;84;20961;-67
2022/09/10 07:39:51;;;;;;;13.28;10.75;;;;;;;9.67;100.00;99640.39;1684954;83;21032;-67
2022/09/10 07:42:20;;;;;;;13.68;10.50;;;;;;;9.68;100.00;99634.59;1675483;84;21069;-67
2022/09/10 07:44:51;;;;;;;10.93;9.75;;;;;;;9.72;100.00;99626.02;1638965;85;21227;-67
2022/09/10 07:47:18;;;;;;;11.18;9.38;;;;;;;9.75;100.00;99630.06;1673840;84;20969;-67
2022/09/10 07:49:51;;;;;;;11.33;9.00;;;;;;;9.77;100.00;99626.46;1675378;84;21130;-68
2022/09/10 07:52:20;;;;;;;11.08;9.48;;;;;;;9.77;100.00;99621.78;1664463;84;20901;-68
2022/09/10 07:54:54;;;;;;;12.60;8.93;;;;;;;9.79;100.00;99623.66;1667680;84;20994;-68
2022/09/10 07:57:24;;;;;;;10.68;9.00;;;;;;;9.81;100.00;99624.16;1674242;84;21244;-67
2022/09/10 07:59:53;;;;;;;10.50;9.40;;;;;;;9.83;100.00;99625.20;1685213;84;21051;-68
2022/09/10 08:02:28;;;;;;;;;;;;;;;9.85;100.00;99621.02;1682514;84;21571;-67
2022/09/10 08:04:56;;;;;;;9.95;8.70;;;;;;;9.88;100.00;99625.89;1678961;84;20175;-67
2022/09/10 08:07:22;;;;;;;8.63;7.37;;;;;;;9.90;100.00;99622.28;1676271;84;21070;-68
2022/09/10 08:09:52;;;;;;;9.40;8.23;;;;;;;9.92;100.00;99624.16;1642287;85;21163;-68
2022/09/10 08:12:24;;;;;;;10.63;7.92;;;;;;;9.94;100.00;99618.36;1681869;84;20990;-68
2022/09/10 08:14:57;;;;;;;10.93;8.55;;;;;;;9.99;100.00;99622.92;1666635;84;21544;-67
2022/09/10 08:17:32;;;;;;;11.15;8.38;;;;;;;9.98;100.00;99617.99;1695967;84;20944;-67
2022/09/10 08:19:59;;;;;;;11.78;9.28;;;;;;;10.02;100.00;99618.19;1665694;84;21001;-67
2022/09/10 08:22:28;;;;;;;12.33;9.75;;;;;;;10.02;100.00;99613.51;1666451;84;21165;-68
2022/09/10 08:25:04;;;;;;;11.30;8.38;;;;;;;10.05;100.00;99611.52;1623325;87;20973;-67
2022/09/10 08:27:34;;;;;;;10.15;8.23;;;;;;;10.08;100.00;99619.13;1671237;84;20974;-68
2022/09/10 08:30:11;;;;;;;14.05;8.55;;;;;;;10.09;100.00;99611.71;1640977;85;21123;-70
2022/09/10 08:32:41;;;;;;;9.45;8.30;;;;;;;10.11;100.00;99624.55;1674539;84;21010;-68
2022/09/10 08:35:10;;;;;;;12.00;9.45;;;;;;;10.12;100.00;99622.06;1686996;84;21174;-67
2022/09/10 08:37:44;;;;;;;9.85;8.28;;;;;;;10.12;100.00;99620.69;1670224;84;21108;-67
2022/09/10 08:40:15;;;;;;;11.48;7.55;;;;;;;10.12;100.00;99620.13;1651174;85;20893;-67
2022/09/10 08:42:53;;;;;;;8.93;7.15;;;;;;;10.11;100.00;99616.33;1677413;84;20909;-71
2022/09/10 08:45:30;;;;;;;9.83;8.33;;;;;;;10.11;100.00;99608.09;1684047;84;21056;-67
2022/09/10 08:48:19;;;;;;;9.83;8.00;;;;;;;10.11;100.00;99608.09;1685552;84;21977;-67
2022/09/10 08:50:51;;;;;;;9.75;8.03;;;;;;;10.13;100.00;99610.78;1670639;84;22108;-67
2022/09/10 08:53:28;;;;;;;9.65;7.42;;;;;;;10.17;100.00;99610.41;1673770;84;21180;-67
2022/09/10 08:56:01;;;;;;;9.43;8.20;;;;;;;10.17;100.00;99604.92;1640523;85;20990;-67
2022/09/10 08:58:42;;;;;;;8.55;7.37;;;;;;;10.19;100.00;99597.75;1647274;84;20953;-67
2022/09/10 09:01:21;;;;;;;12.05;8.35;;;;;;;10.19;100.00;99596.37;1680780;84;21825;-68
2022/09/10 09:03:50;;;;;;;10.10;7.92;;;;;;;10.20;100.00;99600.77;1673348;84;20974;-67
2022/09/10 09:06:50;;;;;;;9.78;8.63;;;;;;;10.21;100.00;99588.68;1684858;84;20903;-68
2022/09/10 09:09:20;;;;;;;11.40;8.98;;;;;;;10.21;100.00;99590.86;1673340;84;21049;-68
2022/09/10 09:12:20;;;;;;;12.40;8.88;;;;;;;10.20;100.00;99583.75;1661178;84;20970;-68
2022/09/10 09:15:10;;;;;;;11.18;8.90;;;;;;;10.19;100.00;99578.02;1627784;84;21265;-67
2022/09/10 09:18:16;;;;;;;11.28;9.18;;;;;;;10.19;100.00;99579.39;1648923;84;20974;-68
2022/09/10 09:21:05;;;;;;;10.38;8.63;;;;;;;10.20;100.00;99576.09;1679396;84;21453;-69
2022/09/10 09:23:50;;;;;;;12.63;9.33;;;;;;;10.21;100.00;99581.26;1661199;84;21110;-69
2022/09/10 09:26:24;;;;;;;10.70;8.38;;;;;;;10.26;100.00;99574.84;1679858;84;20918;-69
2022/09/10 09:29:19;;;;;;;12.05;8.88;;;;;;;10.30;100.00;99570.34;1671438;84;21134;-69
2022/09/10 09:31:51;;;;;;;9.10;8.13;;;;;;;10.32;100.00;99571.41;1663024;84;21081;-68
2022/09/10 09:34:31;;;;;;;8.90;7.90;;;;;;;10.34;100.00;99565.85;1669190;84;21067;-69
2022/09/10 09:37:03;;;;;;;9.33;8.18;;;;;;;10.38;100.00;99556.43;1678048;84;21027;-69
2022/09/10 09:40:16;;;;;;;10.90;8.98;;;;;;;10.44;100.00;99553.77;1674914;84;21172;-69
2022/09/10 09:42:57;;;;;;;10.48;8.58;;;;;;;10.47;100.00;99551.21;1678880;84;21168;-69
2022/09/10 09:45:46;;;;;;;9.68;8.20;;;;;;;10.52;100.00;99551.08;1662216;85;21556;-74
2022/09/10 09:48:13;;;;;;;10.13;8.50;;;;;;;10.59;100.00;99547.88;1670714;84;21089;-72
2022/09/10 09:50:45;;;;;;;10.60;9.08;;;;;;;10.66;100.00;99547.43;1676882;84;20982;-75
2022/09/10 09:53:21;;;;;;;9.65;8.18;;;;;;;10.69;100.00;99535.81;1680368;84;21520;-71
2022/09/10 09:55:55;;;;;;;9.55;8.10;;;;;;;10.71;100.00;99534.94;1685480;84;21122;-75
2022/09/10 09:58:32;;;;;;;10.08;8.75;;;;;;;10.73;100.00;99538.17;1676708;84;21032;-71
2022/09/10 10:01:09;;;;;;;12.63;9.50;;;;;;;10.76;100.00;99543.03;1665794;84;20911;-71
2022/09/10 10:04:01;;;;;;;10.48;9.38;;;;;;;10.77;100.00;99537.22;1677588;84;21587;-69
2022/09/10 10:06:32;;;;;;;10.80;9.53;;;;;;;10.80;100.00;99541.27;1667744;84;21076;-72
2022/09/10 10:09:21;;;;;;;12.18;9.48;;;;;;;10.83;100.00;99537.89;1648406;85;21261;-72
2022/09/10 10:12:01;;;;;;;12.95;10.25;;;;;;;10.85;100.00;99541.13;1674449;84;21442;-75
2022/09/10 10:14:37;;;;;;;12.28;10.40;;;;;;;10.88;100.00;99544.05;1678514;84;20937;-72
2022/09/10 10:17:31;;;;;;;12.98;10.60;;;;;;;10.92;100.00;99542.86;1682976;84;20981;-68
2022/09/10 10:20:09;;;;;;;13.22;11.57;;;;;;;10.94;100.00;99541.97;1672712;84;20982;-74
2022/09/10 10:22:43;;;;;;;15.55;12.23;;;;;;;10.94;100.00;99538.42;1680525;84;21172;-75
2022/09/10 10:25:39;;;;;;;12.05;10.53;;;;;;;10.93;100.00;99533.49;1672746;84;21062;-74
2022/09/10 10:28:24;;;;;;;12.10;10.05;;;;;;;10.95;100.00;99520.81;1667195;84;21037;-75
2022/09/10 10:30:54;;;;;;;12.10;10.50;;;;;;;10.94;100.00;99526.87;1660942;84;21000;-79
2022/09/10 10:33:31;;;;;;;13.80;11.12;;;;;;;10.93;100.00;99528.00;1673590;84;20997;-74
2022/09/10 10:36:15;;;;;;;12.60;10.28;;;;;;;10.94;100.00;99528.80;1674850;84;21280;-75
2022/09/10 10:38:54;;;;;;;12.75;10.72;;;;;;;10.96;100.00;99520.49;1642471;84;21006;-74
2022/09/10 10:41:54;;;;;;;14.87;10.90;;;;;;;10.99;100.00;99521.20;1666382;84;20954;-78
2022/09/10 10:44:48;;;;;;;15.68;10.95;;;;;;;11.03;100.00;99520.00;1681674;84;21136;-75
2022/09/10 10:47:49;;;;;;;13.28;11.20;;;;;;;11.07;100.00;99513.55;1639662;84;20883;-68
2022/09/10 10:50:26;;;;;;;15.08;11.30;;;;;;;11.10;100.00;99500.55;1650157;84;21293;-75
2022/09/10 10:53:19;;;;;;;16.87;10.78;;;;;;;11.16;100.00;99503.39;1676728;84;20967;-73
2022/09/10 10:56:15;;;;;;;13.05;11.70;;;;;;;11.18;100.00;99490.14;1669046;84;20992;-70
2022/09/10 10:59:15;;;;;;;13.15;11.73;;;;;;;11.22;100.00;99494.42;1672650;84;21480;-71
2022/09/10 11:01:56;;;;;;;16.02;10.38;;;;;;;11.25;100.00;99490.47;1686935;84;21027;-71
2022/09/10 11:04:46;;;;;;;;;;;;;;;11.29;100.00;99485.70;1687287;84;21776;-70
2022/09/10 11:07:31;;;;;;;12.85;10.15;;;;;;;11.31;100.00;99474.64;1674844;84;20174;-73
2022/09/10 11:10:14;;;;;;;13.25;10.00;;;;;;;11.30;100.00;99477.14;1687142;84;21005;-73
2022/09/10 11:12:53;;;;;;;15.55;11.38;;;;;;;11.32;100.00;99480.95;1644132;85;20993;-76
2022/09/10 11:15:48;;;;;;;12.37;10.32;;;;;;;11.32;100.00;99480.95;1663932;84;21089;-75
2022/09/10 11:18:26;;;;;;;12.05;10.55;;;;;;;11.32;100.00;99479.57;1656875;84;21786;-71
2022/09/10 11:21:21;;;;;;;13.85;11.30;;;;;;;11.34;100.00;99482.23;1674523;84;20977;-69
2022/09/10 11:24:19;;;;;;;14.07;10.70;;;;;;;11.35;100.00;99469.30;1668154;84;21022;-75
2022/09/10 11:27:17;;;;;;;15.08;11.63;;;;;;;11.38;100.00;99463.16;1696578;84;20999;-74
2022/09/10 11:30:12;;;;;;;16.25;11.93;;;;;;;11.39;100.00;99469.72;1669531;84;21101;-72
2022/09/10 11:33:05;;;;;;;14.05;11.95;;;;;;;11.39;100.00;99464.22;1682300;84;21975;-79
2022/09/10 11:35:48;;;;;;;17.50;12.68;;;;;;;11.40;100.00;99456.22;1677158;84;21542;-72
2022/09/10 11:38:23;;;;;;;16.77;13.38;;;;;;;11.41;100.00;99461.14;1680695;84;20945;-70
2022/09/10 11:41:21;;;;;;;19.57;14.15;;;;;;;11.42;100.00;99453.14;1679781;84;21524;-70
2022/09/10 11:44:06;;;;;;;18.48;14.33;;;;;;;11.42;100.00;99449.83;1669361;84;21024;-66
2022/09/10 11:46:38;;;;;;;17.82;14.63;;;;;;;11.43;100.00;99450.64;1682966;84;21168;-65
2022/09/10 11:49:20;;;;;;;22.05;15.78;;;;;;;11.43;100.00;99447.89;1671077;84;20949;-66
2022/09/10 11:51:47;;;;;;;17.73;13.90;;;;;;;11.43;100.00;99438.27;1674558;84;21547;-68
2022/09/10 11:54:21;;;;;;;19.32;16.48;;;;;;;11.43;100.00;99439.08;1692942;84;21048;-67
2022/09/10 11:56:51;;;;;;;;;;;;;;;11.44;100.00;99436.57;1678868;84;20950;-70
2022/09/10 12:00:07;;;;;;;18.02;14.47;;;;;;;11.43;100.00;99422.58;1677003;84;21150;-68
2022/09/10 12:03:19;;;;;;;20.52;15.70;;;;;;;11.45;100.00;99427.19;1683823;84;20976;-66
2022/09/10 12:06:06;;;;;;;19.77;14.70;;;;;;;11.47;100.00;99428.24;1667229;84;20922;-66
2022/09/10 12:09:06;;;;;;;23.50;15.40;;;;;;;11.49;100.00;99417.16;1690070;84;20949;-66